createdAt,value
2022-12-15T00:00:29.426Z,96.56
2022-12-15T00:01:29.363Z,96.45
2022-12-15T00:02:29.504Z,96.34
2022-12-15T00:03:29.965Z,96.14
2022-12-15T00:04:29.321Z,95.92
2022-12-15T00:05:29.343Z,95.71
2022-12-15T00:06:29.355Z,95.71
2022-12-15T00:07:29.316Z,95.61
2022-12-15T00:08:29.684Z,95.61
2022-12-15T00:09:30.971Z,95.50
2022-12-15T00:10:29.355Z,95.39
2022-12-15T00:11:29.287Z,95.39
2022-12-15T00:12:29.249Z,95.29
2022-12-15T00:13:29.877Z,95.18
2022-12-15T00:14:29.257Z,95.18
2022-12-15T00:15:29.217Z,95.18
2022-12-15T00:16:29.328Z,95.18
2022-12-15T00:17:29.196Z,95.18
2022-12-15T00:18:29.179Z,95.29
2022-12-15T00:19:29.208Z,95.39
2022-12-15T00:20:29.520Z,95.39
2022-12-15T00:21:29.168Z,95.50
2022-12-15T00:22:29.151Z,95.61
2022-12-15T00:23:29.621Z,95.71
2022-12-15T00:24:29.150Z,95.71
2022-12-15T00:25:29.121Z,95.82
2022-12-15T00:26:29.164Z,95.82
2022-12-15T00:27:29.383Z,95.82
2022-12-15T00:28:29.089Z,95.82
2022-12-15T00:29:29.080Z,95.71
2022-12-15T00:30:29.060Z,95.61
2022-12-15T00:31:29.129Z,95.50
2022-12-15T00:32:29.093Z,95.39
2022-12-15T00:33:29.455Z,95.29
2022-12-15T00:34:29.313Z,95.29
2022-12-15T00:35:29.066Z,95.18
2022-12-15T00:36:29.011Z,95.18
2022-12-15T00:37:29.010Z,95.07
2022-12-15T00:38:29.017Z,95.07
2022-12-15T00:39:29.036Z,94.97
2022-12-15T00:40:29.015Z,94.97
2022-12-15T00:41:29.277Z,94.87
2022-12-15T00:42:28.947Z,94.76
2022-12-15T00:43:29.541Z,94.65
2022-12-15T00:44:29.016Z,94.65
2022-12-15T00:45:28.920Z,94.55
2022-12-15T00:46:28.982Z,94.55
2022-12-15T00:47:28.896Z,94.45
2022-12-15T00:48:29.219Z,94.45
2022-12-15T00:49:28.905Z,94.45
2022-12-15T00:50:28.918Z,94.45
2022-12-15T00:51:28.859Z,94.34
2022-12-15T00:52:28.882Z,94.34
2022-12-15T00:53:29.304Z,94.23
2022-12-15T00:54:28.915Z,94.13
2022-12-15T00:55:29.104Z,94.02
2022-12-15T00:56:28.856Z,94.02
2022-12-15T00:57:28.808Z,93.91
2022-12-15T00:58:28.780Z,93.77
2022-12-15T00:59:28.805Z,93.77
2022-12-15T01:00:28.775Z,93.66
2022-12-15T01:01:29.095Z,93.66
2022-12-15T01:02:29.280Z,93.55
2022-12-15T01:03:29.531Z,93.55
2022-12-15T01:04:28.739Z,93.45
2022-12-15T01:05:28.748Z,93.45
2022-12-15T01:06:28.728Z,93.45
2022-12-15T01:07:28.727Z,93.45
2022-12-15T01:08:28.721Z,93.60
2022-12-15T01:09:28.997Z,93.60
2022-12-15T01:10:28.686Z,93.60
2022-12-15T01:11:28.680Z,93.34
2022-12-15T01:12:28.646Z,93.24
2022-12-15T01:13:29.342Z,93.13
2022-12-15T01:14:28.668Z,93.02
2022-12-15T01:15:28.620Z,92.92
2022-12-15T01:16:28.967Z,92.82
2022-12-15T01:17:28.615Z,92.71
2022-12-15T01:18:28.603Z,92.60
2022-12-15T01:19:28.657Z,92.50
2022-12-15T01:20:28.638Z,92.50
2022-12-15T01:21:28.592Z,92.50
2022-12-15T01:22:28.553Z,92.39
2022-12-15T01:23:29.258Z,92.39
2022-12-15T01:24:28.522Z,92.29
2022-12-15T01:25:28.521Z,92.18
2022-12-15T01:26:28.551Z,92.07
2022-12-15T01:27:28.512Z,92.07
2022-12-15T01:28:28.502Z,91.97
2022-12-15T01:29:28.492Z,91.97
2022-12-15T01:30:28.771Z,92.07
2022-12-15T01:31:28.547Z,92.07
2022-12-15T01:32:28.498Z,92.07
2022-12-15T01:33:28.922Z,92.03
2022-12-15T01:34:28.428Z,92.07
2022-12-15T01:35:28.426Z,92.18
2022-12-15T01:36:28.443Z,92.18
2022-12-15T01:37:28.689Z,92.29
2022-12-15T01:38:28.449Z,92.29
2022-12-15T01:39:28.387Z,92.29
2022-12-15T01:40:28.371Z,92.39
2022-12-15T01:41:28.387Z,92.50
2022-12-15T01:42:28.353Z,92.50
2022-12-15T01:43:28.856Z,92.50
2022-12-15T01:44:28.707Z,92.50
2022-12-15T01:45:28.367Z,92.60
2022-12-15T01:46:28.375Z,92.60
2022-12-15T01:47:28.358Z,92.50
2022-12-15T01:48:28.322Z,92.39
2022-12-15T01:49:28.293Z,92.39
2022-12-15T01:50:28.347Z,92.29
2022-12-15T01:51:28.565Z,92.29
2022-12-15T01:52:28.270Z,92.18
2022-12-15T01:53:28.741Z,92.18
2022-12-15T01:54:28.245Z,92.07
2022-12-15T01:55:28.232Z,92.07
2022-12-15T01:56:31.208Z,92.07
2022-12-15T01:57:28.223Z,92.07
2022-12-15T01:58:28.485Z,92.07
2022-12-15T01:59:28.199Z,92.07
2022-12-15T02:00:28.256Z,92.07
2022-12-15T02:01:28.311Z,92.07
2022-12-15T02:02:28.334Z,92.07
2022-12-15T02:03:28.483Z,91.97
2022-12-15T02:04:28.133Z,91.97
2022-12-15T02:05:28.409Z,91.86
2022-12-15T02:06:28.116Z,91.86
2022-12-15T02:07:28.115Z,91.72
2022-12-15T02:08:28.154Z,91.76
2022-12-15T02:09:28.154Z,91.76
2022-12-15T02:10:28.088Z,91.86
2022-12-15T02:11:28.069Z,91.86
2022-12-15T02:12:28.350Z,91.86
2022-12-15T02:13:28.458Z,91.97
2022-12-15T02:14:28.071Z,91.97
2022-12-15T02:15:28.060Z,91.97
2022-12-15T02:16:28.093Z,91.97
2022-12-15T02:17:28.031Z,91.97
2022-12-15T02:18:28.015Z,91.97
2022-12-15T02:19:28.301Z,91.97
2022-12-15T02:20:28.038Z,91.97
2022-12-15T02:21:27.978Z,91.86
2022-12-15T02:22:27.988Z,91.97
2022-12-15T02:23:28.341Z,92.07
2022-12-15T02:24:27.954Z,91.97
2022-12-15T02:25:27.952Z,91.86
2022-12-15T02:26:28.260Z,91.86
2022-12-15T02:27:27.912Z,91.86
2022-12-15T02:28:27.904Z,91.86
2022-12-15T02:29:27.930Z,91.97
2022-12-15T02:30:27.879Z,91.86
2022-12-15T02:31:27.939Z,91.86
2022-12-15T02:32:27.912Z,91.97
2022-12-15T02:33:28.501Z,91.97
2022-12-15T02:34:27.886Z,91.97
2022-12-15T02:35:27.858Z,91.86
2022-12-15T02:36:27.826Z,91.86
2022-12-15T02:37:27.820Z,91.86
2022-12-15T02:38:27.832Z,91.97
2022-12-15T02:39:27.804Z,91.97
2022-12-15T02:40:27.783Z,91.97
2022-12-15T02:41:27.832Z,92.07
2022-12-15T02:42:27.764Z,92.07
2022-12-15T02:43:28.062Z,92.07
2022-12-15T02:44:27.780Z,91.97
2022-12-15T02:45:27.816Z,91.86
2022-12-15T02:46:28.004Z,91.91
2022-12-15T02:47:27.716Z,91.86
2022-12-15T02:48:27.722Z,91.91
2022-12-15T02:49:27.727Z,92.01
2022-12-15T02:50:27.764Z,92.01
2022-12-15T02:51:27.681Z,92.01
2022-12-15T02:52:27.669Z,91.97
2022-12-15T02:53:28.283Z,91.86
2022-12-15T02:54:27.645Z,91.76
2022-12-15T02:55:27.655Z,91.76
2022-12-15T02:56:27.682Z,91.76
2022-12-15T02:57:27.668Z,91.76
2022-12-15T02:58:27.665Z,91.80
2022-12-15T02:59:27.653Z,91.91
2022-12-15T03:00:27.864Z,92.01
2022-12-15T03:01:27.665Z,92.01
2022-12-15T03:02:27.761Z,92.11
2022-12-15T03:03:27.834Z,92.33
2022-12-15T03:04:27.549Z,92.33
2022-12-15T03:05:27.532Z,92.43
2022-12-15T03:06:27.555Z,92.54
2022-12-15T03:07:27.882Z,92.65
2022-12-15T03:08:27.546Z,92.65
2022-12-15T03:09:27.639Z,92.65
2022-12-15T03:10:27.495Z,92.65
2022-12-15T03:11:27.499Z,92.65
2022-12-15T03:12:27.475Z,92.65
2022-12-15T03:13:27.656Z,92.75
2022-12-15T03:14:27.765Z,92.75
2022-12-15T03:15:31.797Z,92.75
2022-12-15T03:16:27.510Z,92.86
2022-12-15T03:17:27.417Z,92.75
2022-12-15T03:18:27.409Z,92.86
2022-12-15T03:19:27.419Z,92.86
2022-12-15T03:20:27.485Z,92.86
2022-12-15T03:21:27.686Z,92.86
2022-12-15T03:22:27.368Z,92.86
2022-12-15T03:23:27.511Z,92.75
2022-12-15T03:24:27.359Z,92.90
2022-12-15T03:25:27.348Z,92.86
2022-12-15T03:26:27.355Z,92.90
2022-12-15T03:27:27.317Z,92.86
2022-12-15T03:28:27.608Z,92.79
2022-12-15T03:29:27.336Z,92.79
2022-12-15T03:30:27.303Z,92.69
2022-12-15T03:31:27.361Z,92.65
2022-12-15T03:32:27.352Z,92.65
2022-12-15T03:33:27.283Z,92.69
2022-12-15T03:34:27.298Z,92.69
2022-12-15T03:35:27.528Z,92.65
2022-12-15T03:36:27.302Z,92.79
2022-12-15T03:37:27.225Z,92.79
2022-12-15T03:38:27.252Z,92.79
2022-12-15T03:39:27.309Z,92.90
2022-12-15T03:40:27.238Z,93.01
2022-12-15T03:41:27.190Z,93.01
2022-12-15T03:42:27.478Z,93.01
2022-12-15T03:43:27.219Z,93.01
2022-12-15T03:44:27.176Z,93.01
2022-12-15T03:45:27.139Z,93.11
2022-12-15T03:46:27.199Z,93.11
2022-12-15T03:47:27.130Z,93.11
2022-12-15T03:48:27.136Z,93.11
2022-12-15T03:49:27.107Z,93.11
2022-12-15T03:50:27.141Z,93.11
2022-12-15T03:51:27.076Z,93.21
2022-12-15T03:52:27.080Z,93.21
2022-12-15T03:53:27.279Z,93.21
2022-12-15T03:54:27.335Z,93.21
2022-12-15T03:55:27.051Z,93.21
2022-12-15T03:56:27.101Z,93.21
2022-12-15T03:57:27.029Z,93.07
2022-12-15T03:58:27.036Z,92.96
2022-12-15T03:59:27.007Z,92.90
2022-12-15T04:00:27.007Z,92.96
2022-12-15T04:01:27.128Z,92.86
2022-12-15T04:02:27.176Z,92.86
2022-12-15T04:03:27.038Z,92.96
2022-12-15T04:04:27.023Z,92.96
2022-12-15T04:05:27.004Z,92.86
2022-12-15T04:06:27.221Z,92.65
2022-12-15T04:07:26.953Z,92.54
2022-12-15T04:08:27.008Z,92.43
2022-12-15T04:09:26.906Z,92.43
2022-12-15T04:10:31.877Z,92.54
2022-12-15T04:11:26.885Z,92.54
2022-12-15T04:12:26.933Z,92.65
2022-12-15T04:13:27.156Z,92.65
2022-12-15T04:14:26.908Z,92.65
2022-12-15T04:15:26.899Z,92.65
2022-12-15T04:16:26.892Z,92.65
2022-12-15T04:17:26.847Z,92.75
2022-12-15T04:18:26.827Z,92.65
2022-12-15T04:19:26.808Z,92.75
2022-12-15T04:20:27.143Z,92.75
2022-12-15T04:21:26.784Z,92.75
2022-12-15T04:22:26.795Z,92.86
2022-12-15T04:23:26.802Z,93.07
2022-12-15T04:24:26.761Z,93.18
2022-12-15T04:25:26.751Z,93.38
2022-12-15T04:26:26.774Z,93.60
2022-12-15T04:27:27.013Z,93.70
2022-12-15T04:28:26.725Z,93.85
2022-12-15T04:29:26.706Z,93.91
2022-12-15T04:30:26.704Z,93.91
2022-12-15T04:31:26.907Z,93.91
2022-12-15T04:32:26.721Z,94.02
2022-12-15T04:33:30.692Z,94.17
2022-12-15T04:34:26.953Z,94.27
2022-12-15T04:35:26.666Z,94.34
2022-12-15T04:36:26.659Z,94.38
2022-12-15T04:37:26.630Z,94.48
2022-12-15T04:38:26.670Z,94.48
2022-12-15T04:39:26.624Z,94.59
2022-12-15T04:40:26.613Z,94.59
2022-12-15T04:41:26.889Z,94.59
2022-12-15T04:42:26.598Z,94.81
2022-12-15T04:43:26.618Z,94.81
2022-12-15T04:44:26.652Z,94.91
2022-12-15T04:45:26.615Z,94.91
2022-12-15T04:46:26.696Z,95.01
2022-12-15T04:47:26.565Z,95.01
2022-12-15T04:48:26.838Z,95.12
2022-12-15T04:49:26.506Z,95.23
2022-12-15T04:50:26.628Z,95.37
2022-12-15T04:51:26.497Z,95.37
2022-12-15T04:52:26.491Z,95.48
2022-12-15T04:53:26.484Z,95.48
2022-12-15T04:54:26.485Z,95.59
2022-12-15T04:55:26.741Z,95.69
2022-12-15T04:56:26.485Z,95.80
2022-12-15T04:57:26.445Z,95.80
2022-12-15T04:58:26.432Z,95.90
2022-12-15T04:59:26.430Z,95.90
2022-12-15T05:00:26.459Z,96.01
2022-12-15T05:01:26.558Z,96.01
2022-12-15T05:02:26.917Z,96.12
2022-12-15T05:03:26.372Z,96.12
2022-12-15T05:04:26.442Z,96.22
2022-12-15T05:05:26.353Z,96.22
2022-12-15T05:06:26.356Z,96.22
2022-12-15T05:07:26.343Z,96.22
2022-12-15T05:08:26.370Z,96.33
2022-12-15T05:09:26.604Z,96.33
2022-12-15T05:10:26.306Z,96.44
2022-12-15T05:11:26.324Z,96.44
2022-12-15T05:12:26.291Z,96.54
2022-12-15T05:13:26.285Z,96.64
2022-12-15T05:14:26.363Z,96.64
2022-12-15T05:15:26.318Z,96.75
2022-12-15T05:16:26.581Z,96.75
2022-12-15T05:17:26.357Z,96.75
2022-12-15T05:18:26.261Z,96.75
2022-12-15T05:19:26.226Z,96.75
2022-12-15T05:20:26.275Z,96.75
2022-12-15T05:21:26.219Z,96.75
2022-12-15T05:22:26.229Z,96.75
2022-12-15T05:23:27.359Z,96.75
2022-12-15T05:24:26.194Z,96.86
2022-12-15T05:25:26.244Z,96.96
2022-12-15T05:26:26.188Z,96.96
2022-12-15T05:27:26.214Z,96.96
2022-12-15T05:28:26.151Z,96.96
2022-12-15T05:29:26.134Z,96.86
2022-12-15T05:30:26.428Z,96.86
2022-12-15T05:31:26.172Z,96.86
2022-12-15T05:32:26.132Z,96.86
2022-12-15T05:33:26.102Z,96.86
2022-12-15T05:34:26.126Z,96.75
2022-12-15T05:35:26.104Z,97.03
2022-12-15T05:36:26.053Z,97.24
2022-12-15T05:37:26.342Z,97.34
2022-12-15T05:38:26.077Z,97.03
2022-12-15T05:39:26.031Z,96.81
2022-12-15T05:40:26.022Z,96.71
2022-12-15T05:41:26.014Z,96.71
2022-12-15T05:42:25.994Z,96.60
2022-12-15T05:43:26.645Z,96.60
2022-12-15T05:44:26.334Z,96.60
2022-12-15T05:45:26.021Z,96.50
2022-12-15T05:46:26.038Z,96.39
2022-12-15T05:47:26.042Z,96.39
2022-12-15T05:48:25.963Z,96.39
2022-12-15T05:49:25.931Z,96.50
2022-12-15T05:50:25.986Z,96.50
2022-12-15T05:51:26.203Z,96.50
2022-12-15T05:52:25.953Z,96.60
2022-12-15T05:53:25.892Z,96.60
2022-12-15T05:54:25.914Z,96.60
2022-12-15T05:55:25.905Z,96.60
2022-12-15T05:56:25.943Z,96.60
2022-12-15T05:57:25.897Z,96.60
2022-12-15T05:58:26.145Z,96.60
2022-12-15T05:59:25.865Z,96.50
2022-12-15T06:00:25.849Z,96.50
2022-12-15T06:01:25.896Z,96.50
2022-12-15T06:02:25.916Z,96.50
2022-12-15T06:03:25.806Z,96.39
2022-12-15T06:04:25.892Z,96.50
2022-12-15T06:05:26.123Z,96.50
2022-12-15T06:06:25.803Z,96.50
2022-12-15T06:07:25.769Z,96.50
2022-12-15T06:08:25.799Z,96.60
2022-12-15T06:09:25.761Z,96.60
2022-12-15T06:10:25.745Z,96.60
2022-12-15T06:11:25.733Z,96.71
2022-12-15T06:12:26.001Z,96.71
2022-12-15T06:13:25.740Z,96.81
2022-12-15T06:14:25.743Z,96.71
2022-12-15T06:15:25.699Z,96.81
2022-12-15T06:16:25.773Z,96.81
2022-12-15T06:17:25.673Z,96.92
2022-12-15T06:18:25.655Z,96.92
2022-12-15T06:19:25.965Z,96.92
2022-12-15T06:20:25.706Z,96.92
2022-12-15T06:21:25.628Z,97.03
2022-12-15T06:22:25.625Z,97.13
2022-12-15T06:23:25.616Z,97.13
2022-12-15T06:24:25.635Z,97.13
2022-12-15T06:25:25.601Z,97.13
2022-12-15T06:26:25.916Z,97.13
2022-12-15T06:27:25.579Z,97.13
2022-12-15T06:28:25.582Z,97.13
2022-12-15T06:29:25.588Z,97.13
2022-12-15T06:30:25.566Z,97.13
2022-12-15T06:31:25.794Z,97.13
2022-12-15T06:32:25.568Z,97.13
2022-12-15T06:33:25.804Z,97.13
2022-12-15T06:34:25.510Z,97.13
2022-12-15T06:35:25.533Z,97.13
2022-12-15T06:36:25.482Z,97.09
2022-12-15T06:37:25.461Z,97.09
2022-12-15T06:38:25.495Z,97.09
2022-12-15T06:39:25.459Z,97.09
2022-12-15T06:40:25.732Z,97.09
2022-12-15T06:41:25.428Z,96.98
2022-12-15T06:42:25.438Z,96.98
2022-12-15T06:43:25.407Z,96.88
2022-12-15T06:44:25.455Z,96.88
2022-12-15T06:45:25.431Z,96.88
2022-12-15T06:46:25.548Z,96.88
2022-12-15T06:47:25.733Z,97.30
2022-12-15T06:48:25.378Z,97.41
2022-12-15T06:49:25.383Z,97.30
2022-12-15T06:50:25.400Z,97.19
2022-12-15T06:51:25.364Z,97.09
2022-12-15T06:52:25.327Z,97.09
2022-12-15T06:53:25.334Z,97.09
2022-12-15T06:54:25.625Z,96.98
2022-12-15T06:55:25.344Z,96.98
2022-12-15T06:56:30.649Z,96.98
2022-12-15T06:57:25.318Z,96.88
2022-12-15T06:58:25.269Z,96.88
2022-12-15T06:59:25.297Z,96.77
2022-12-15T07:00:25.287Z,96.66
2022-12-15T07:01:25.627Z,96.66
2022-12-15T07:02:28.817Z,96.41
2022-12-15T07:03:25.554Z,96.30
2022-12-15T07:04:25.247Z,96.20
2022-12-15T07:05:25.206Z,95.98
2022-12-15T07:06:25.213Z,95.98
2022-12-15T07:07:25.213Z,95.88
2022-12-15T07:08:30.469Z,95.88
2022-12-15T07:09:25.176Z,95.78
2022-12-15T07:10:25.157Z,95.78
2022-12-15T07:11:25.143Z,95.67
2022-12-15T07:12:25.159Z,95.67
2022-12-15T07:13:25.119Z,95.67
2022-12-15T07:14:25.153Z,95.56
2022-12-15T07:15:25.107Z,95.46
2022-12-15T07:16:25.257Z,95.56
2022-12-15T07:17:25.069Z,95.67
2022-12-15T07:18:25.073Z,95.78
2022-12-15T07:19:25.075Z,95.78
2022-12-15T07:20:28.763Z,95.56
2022-12-15T07:21:25.353Z,95.56
2022-12-15T07:22:25.048Z,95.46
2022-12-15T07:23:39.870Z,95.35
2022-12-15T07:24:25.041Z,95.25
2022-12-15T07:25:25.015Z,95.14
2022-12-15T07:26:25.065Z,95.03
2022-12-15T07:27:24.986Z,94.99
2022-12-15T07:28:26.025Z,95.10
2022-12-15T07:29:24.990Z,95.10
2022-12-15T07:30:24.965Z,95.10
2022-12-15T07:31:25.068Z,95.10
2022-12-15T07:32:24.996Z,95.10
2022-12-15T07:33:24.938Z,94.99
2022-12-15T07:34:24.985Z,94.89
2022-12-15T07:35:24.915Z,94.89
2022-12-15T07:36:24.940Z,94.89
2022-12-15T07:37:24.894Z,94.93
2022-12-15T07:38:24.979Z,94.93
2022-12-15T07:39:24.872Z,94.89
2022-12-15T07:40:25.282Z,94.89
2022-12-15T07:41:24.856Z,94.99
2022-12-15T07:42:24.889Z,95.03
2022-12-15T07:43:24.860Z,95.03
2022-12-15T07:44:24.885Z,95.03
2022-12-15T07:45:24.903Z,95.03
2022-12-15T07:46:24.864Z,95.14
2022-12-15T07:47:24.807Z,95.14
2022-12-15T07:48:24.802Z,95.14
2022-12-15T07:49:24.792Z,95.14
2022-12-15T07:50:24.864Z,95.14
2022-12-15T07:51:24.781Z,95.14
2022-12-15T07:52:25.116Z,95.14
2022-12-15T07:53:24.756Z,95.14
2022-12-15T07:54:24.728Z,95.03
2022-12-15T07:55:50.180Z,94.99
2022-12-15T07:56:24.794Z,95.03
2022-12-15T07:57:24.700Z,95.03
2022-12-15T07:58:24.722Z,95.03
2022-12-15T07:59:24.960Z,95.03
2022-12-15T08:00:24.671Z,95.03
2022-12-15T08:01:24.910Z,95.03
2022-12-15T08:02:24.977Z,95.14
2022-12-15T08:03:24.699Z,95.14
2022-12-15T08:04:24.709Z,95.14
2022-12-15T08:05:24.712Z,95.10
2022-12-15T08:06:25.000Z,95.10
2022-12-15T08:07:24.645Z,95.10
2022-12-15T08:08:24.750Z,94.53
2022-12-15T08:09:24.642Z,93.74
2022-12-15T08:10:24.582Z,92.86
2022-12-15T08:11:24.588Z,91.70
2022-12-15T08:12:24.530Z,90.96
2022-12-15T08:13:52.844Z,90.50
2022-12-15T08:14:25.024Z,90.08
2022-12-15T08:15:24.572Z,89.51
2022-12-15T08:16:24.632Z,89.19
2022-12-15T08:17:24.521Z,88.24
2022-12-15T08:18:24.552Z,88.13
2022-12-15T08:19:24.539Z,88.24
2022-12-15T08:20:24.834Z,88.20
2022-12-15T08:21:24.496Z,87.99
2022-12-15T08:22:24.488Z,87.42
2022-12-15T08:23:24.478Z,86.83
2022-12-15T08:24:24.482Z,87.25
2022-12-15T08:25:24.490Z,87.36
2022-12-15T08:26:30.047Z,87.32
2022-12-15T08:27:24.489Z,86.79
2022-12-15T08:28:24.496Z,86.58
2022-12-15T08:29:50.071Z,86.58
2022-12-15T08:30:24.407Z,86.79
2022-12-15T08:31:24.454Z,86.44
2022-12-15T08:32:24.565Z,85.80
2022-12-15T08:33:24.696Z,85.45
2022-12-15T08:34:24.380Z,85.10
2022-12-15T08:35:54.517Z,84.11
2022-12-15T08:36:24.443Z,82.60
2022-12-15T08:37:24.293Z,81.30
2022-12-15T08:38:24.415Z,80.46
2022-12-15T08:39:24.381Z,80.57
2022-12-15T08:40:24.711Z,80.68
2022-12-15T08:41:24.342Z,80.43
2022-12-15T08:42:24.274Z,79.90
2022-12-15T08:43:24.407Z,79.24
2022-12-15T08:44:24.311Z,78.67
2022-12-15T08:45:24.344Z,78.05
2022-12-15T08:46:24.395Z,77.28
2022-12-15T08:47:24.533Z,76.75
2022-12-15T08:48:24.229Z,76.30
2022-12-15T08:49:24.253Z,75.88
2022-12-15T08:50:24.265Z,75.78
2022-12-15T08:51:24.319Z,75.25
2022-12-15T08:52:24.201Z,75.32
2022-12-15T08:53:32.204Z,75.11
2022-12-15T08:54:24.175Z,74.69
2022-12-15T08:55:24.173Z,74.90
2022-12-15T08:56:24.230Z,74.45
2022-12-15T08:57:24.138Z,73.61
2022-12-15T08:58:24.124Z,73.40
2022-12-15T08:59:24.122Z,73.26
2022-12-15T09:00:24.356Z,72.95
2022-12-15T09:01:24.508Z,72.74
2022-12-15T09:02:24.250Z,72.53
2022-12-15T09:03:24.098Z,72.85
2022-12-15T09:04:24.161Z,72.85
2022-12-15T09:05:24.107Z,72.81
2022-12-15T09:06:24.062Z,72.47
2022-12-15T09:07:24.294Z,71.56
2022-12-15T09:08:24.113Z,72.19
2022-12-15T09:09:24.038Z,71.77
2022-12-15T09:10:24.070Z,72.50
2022-12-15T09:11:23.983Z,71.94
2022-12-15T09:12:24.013Z,70.76
2022-12-15T09:13:23.981Z,70.97
2022-12-15T09:14:29.079Z,70.20
2022-12-15T09:15:45.348Z,69.47
2022-12-15T09:16:24.062Z,69.26
2022-12-15T09:17:24.143Z,69.61
2022-12-15T09:18:23.952Z,70.45
2022-12-15T09:19:24.031Z,70.68
2022-12-15T09:20:24.044Z,71.18
2022-12-15T09:21:23.928Z,70.97
2022-12-15T09:22:23.854Z,70.90
2022-12-15T09:23:23.920Z,71.84
2022-12-15T09:24:33.885Z,71.39
2022-12-15T09:25:23.882Z,71.21
2022-12-15T09:26:24.188Z,71.18
2022-12-15T09:27:23.881Z,70.86
2022-12-15T09:28:23.770Z,70.86
2022-12-15T09:29:24.008Z,71.28
2022-12-15T09:30:24.113Z,71.08
2022-12-15T09:31:23.952Z,71.28
2022-12-15T09:32:23.899Z,70.86
2022-12-15T09:33:23.826Z,70.83
2022-12-15T09:34:23.793Z,70.00
2022-12-15T09:35:23.764Z,70.13
2022-12-15T09:36:23.735Z,70.86
2022-12-15T09:37:23.752Z,70.76
2022-12-15T09:38:23.813Z,70.90
2022-12-15T09:39:24.075Z,71.59
2022-12-15T09:40:23.879Z,71.59
2022-12-15T09:41:24.208Z,70.80
2022-12-15T09:42:24.319Z,69.72
2022-12-15T09:43:46.227Z,68.51
2022-12-15T09:44:24.238Z,66.92
2022-12-15T09:45:24.174Z,66.26
2022-12-15T09:46:24.157Z,65.71
2022-12-15T09:47:23.675Z,64.77
2022-12-15T09:48:23.620Z,64.87
2022-12-15T09:49:23.694Z,64.80
2022-12-15T09:50:23.814Z,65.01
2022-12-15T09:51:23.613Z,65.84
2022-12-15T09:52:23.638Z,65.43
2022-12-15T09:53:53.527Z,65.30
2022-12-15T09:54:23.730Z,64.87
2022-12-15T09:55:23.794Z,64.98
2022-12-15T09:56:23.723Z,64.77
2022-12-15T09:57:23.584Z,64.53
2022-12-15T09:58:23.582Z,64.32
2022-12-15T09:59:23.567Z,64.04
2022-12-15T10:00:23.883Z,64.59
2022-12-15T10:01:23.522Z,64.90
2022-12-15T10:02:23.705Z,65.22
2022-12-15T10:03:23.700Z,65.70
2022-12-15T10:04:23.608Z,66.95
2022-12-15T10:05:29.782Z,67.68
2022-12-15T10:06:28.322Z,67.44
2022-12-15T10:07:23.466Z,67.16
2022-12-15T10:08:23.479Z,67.88
2022-12-15T10:09:23.419Z,68.23
2022-12-15T10:10:23.492Z,67.99
2022-12-15T10:11:23.417Z,67.05
2022-12-15T10:12:23.420Z,66.92
2022-12-15T10:13:23.692Z,67.16
2022-12-15T10:14:23.461Z,68.02
2022-12-15T10:15:23.332Z,68.23
2022-12-15T10:16:23.410Z,68.30
2022-12-15T10:17:23.349Z,68.02
2022-12-15T10:18:23.298Z,67.81
2022-12-15T10:19:23.337Z,68.44
2022-12-15T10:20:23.439Z,68.62
2022-12-15T10:21:23.297Z,67.82
2022-12-15T10:22:23.401Z,66.89
2022-12-15T10:23:23.358Z,67.02
2022-12-15T10:24:59.775Z,67.75
2022-12-15T10:25:29.662Z,67.36
2022-12-15T10:26:23.225Z,68.89
2022-12-15T10:27:23.254Z,69.59
2022-12-15T10:28:23.291Z,68.69
2022-12-15T10:29:23.359Z,67.41
2022-12-15T10:30:23.422Z,67.13
2022-12-15T10:31:23.317Z,67.57
2022-12-15T10:32:23.557Z,68.85
2022-12-15T10:33:23.204Z,68.69
2022-12-15T10:34:23.234Z,67.48
2022-12-15T10:35:23.194Z,66.17
2022-12-15T10:36:23.180Z,64.69
2022-12-15T10:37:23.086Z,63.88
2022-12-15T10:38:23.141Z,64.22
2022-12-15T10:39:23.443Z,65.09
2022-12-15T10:40:23.291Z,65.71
2022-12-15T10:41:23.127Z,65.78
2022-12-15T10:42:23.119Z,64.92
2022-12-15T10:43:23.073Z,65.47
2022-12-15T10:44:27.178Z,65.34
2022-12-15T10:45:23.033Z,64.58
2022-12-15T10:46:23.414Z,63.82
2022-12-15T10:47:23.046Z,62.99
2022-12-15T10:48:23.010Z,62.99
2022-12-15T10:49:23.040Z,63.09
2022-12-15T10:50:24.969Z,63.67
2022-12-15T10:51:22.952Z,64.48
2022-12-15T10:52:22.981Z,64.31
2022-12-15T10:53:23.209Z,62.65
2022-12-15T10:54:22.979Z,62.86
2022-12-15T10:55:22.986Z,63.54
2022-12-15T10:56:27.327Z,64.72
2022-12-15T10:57:23.338Z,65.47
2022-12-15T10:58:22.871Z,65.58
2022-12-15T10:59:22.934Z,65.89
2022-12-15T11:00:23.226Z,66.30
2022-12-15T11:01:23.091Z,66.20
2022-12-15T11:02:25.087Z,66.97
2022-12-15T11:03:23.164Z,64.94
2022-12-15T11:04:23.005Z,63.32
2022-12-15T11:05:22.910Z,62.99
2022-12-15T11:06:22.852Z,65.00
2022-12-15T11:07:23.117Z,65.72
2022-12-15T11:08:22.889Z,65.59
2022-12-15T11:09:22.851Z,64.69
2022-12-15T11:10:22.961Z,65.20
2022-12-15T11:11:25.975Z,66.06
2022-12-15T11:12:23.708Z,67.38
2022-12-15T11:13:22.772Z,68.42
2022-12-15T11:14:22.854Z,68.32
2022-12-15T11:15:22.820Z,67.63
2022-12-15T11:16:22.762Z,66.11
2022-12-15T11:17:22.783Z,65.38
2022-12-15T11:18:22.683Z,65.69
2022-12-15T11:19:22.986Z,64.94
2022-12-15T11:20:22.759Z,64.86
2022-12-15T11:21:22.685Z,64.62
2022-12-15T11:22:22.645Z,65.32
2022-12-15T11:23:22.624Z,64.23
2022-12-15T11:24:23.074Z,63.09
2022-12-15T11:25:22.641Z,63.53
2022-12-15T11:26:22.681Z,64.15
2022-12-15T11:27:22.620Z,63.94
2022-12-15T11:28:22.660Z,63.11
2022-12-15T11:29:22.681Z,63.84
2022-12-15T11:30:22.590Z,63.94
2022-12-15T11:31:22.867Z,64.49
2022-12-15T11:32:22.731Z,64.94
2022-12-15T11:33:22.637Z,65.66
2022-12-15T11:34:22.604Z,65.87
2022-12-15T11:35:22.493Z,65.42
2022-12-15T11:36:22.551Z,65.25
2022-12-15T11:37:22.488Z,65.77
2022-12-15T11:38:22.848Z,66.42
2022-12-15T11:39:22.531Z,66.28
2022-12-15T11:40:22.612Z,65.56
2022-12-15T11:41:22.618Z,65.84
2022-12-15T11:42:22.420Z,64.87
2022-12-15T11:43:22.462Z,64.25
2022-12-15T11:44:22.552Z,64.12
2022-12-15T11:45:22.743Z,63.92
2022-12-15T11:46:22.390Z,64.46
2022-12-15T11:47:22.471Z,65.53
2022-12-15T11:48:22.411Z,65.91
2022-12-15T11:49:22.451Z,65.19
2022-12-15T11:50:22.406Z,64.51
2022-12-15T11:51:22.426Z,63.23
2022-12-15T11:52:22.696Z,62.37
2022-12-15T11:53:22.349Z,61.49
2022-12-15T11:54:22.303Z,60.97
2022-12-15T11:55:27.769Z,60.69
2022-12-15T11:56:22.398Z,61.52
2022-12-15T11:57:22.369Z,61.55
2022-12-15T11:58:22.283Z,62.61
2022-12-15T11:59:22.556Z,63.68
2022-12-15T12:00:22.354Z,62.92
2022-12-15T12:01:22.385Z,63.50
2022-12-15T12:02:22.551Z,64.43
2022-12-15T12:03:22.355Z,64.02
2022-12-15T12:04:22.258Z,63.92
2022-12-15T12:05:22.185Z,64.40
2022-12-15T12:06:22.490Z,64.43
2022-12-15T12:07:22.302Z,65.84
2022-12-15T12:08:22.293Z,65.50
2022-12-15T12:09:22.232Z,65.60
2022-12-15T12:10:22.185Z,65.06
2022-12-15T12:11:22.176Z,64.85
2022-12-15T12:12:22.142Z,64.61
2022-12-15T12:13:22.174Z,64.40
2022-12-15T12:14:22.201Z,64.06
2022-12-15T12:15:22.109Z,63.78
2022-12-15T12:16:22.208Z,64.95
2022-12-15T12:17:22.123Z,66.05
2022-12-15T12:18:22.088Z,67.74
2022-12-15T12:19:22.468Z,68.37
2022-12-15T12:20:22.168Z,68.26
2022-12-15T12:21:22.058Z,68.13
2022-12-15T12:22:22.039Z,67.30
2022-12-15T12:23:22.072Z,67.19
2022-12-15T12:24:22.041Z,67.64
2022-12-15T12:25:22.059Z,67.27
2022-12-15T12:26:22.544Z,66.09
2022-12-15T12:27:21.981Z,66.41
2022-12-15T12:28:21.948Z,65.44
2022-12-15T12:29:22.014Z,64.58
2022-12-15T12:30:21.958Z,64.72
2022-12-15T12:31:21.942Z,66.33
2022-12-15T12:32:22.083Z,66.44
2022-12-15T12:33:22.226Z,66.61
2022-12-15T12:34:21.955Z,65.55
2022-12-15T12:35:31.432Z,64.65
2022-12-15T12:36:21.947Z,63.59
2022-12-15T12:37:21.835Z,62.84
2022-12-15T12:38:21.885Z,62.45
2022-12-15T12:39:21.834Z,63.20
2022-12-15T12:40:22.169Z,63.31
2022-12-15T12:41:21.922Z,63.10
2022-12-15T12:42:21.853Z,63.31
2022-12-15T12:43:21.808Z,63.07
2022-12-15T12:44:21.930Z,62.87
2022-12-15T12:45:21.927Z,63.17
2022-12-15T12:46:21.780Z,62.94
2022-12-15T12:47:22.167Z,62.32
2022-12-15T12:48:21.894Z,62.11
2022-12-15T12:49:26.435Z,62.11
2022-12-15T12:50:21.868Z,62.35
2022-12-15T12:51:21.761Z,62.14
2022-12-15T12:52:21.839Z,62.87